sensor_id;sensor_type;location;lat;lon;timestamp;temperature;humidity
6822;DHT22;3449;48.728;8.968;2023-03-31T00:01:05;9.00;99.90
6822;DHT22;3449;48.728;8.968;2023-03-31T00:03:32;8.90;99.90
6822;DHT22;3449;48.728;8.968;2023-03-31T00:06:03;8.90;99.90
6822;DHT22;3449;48.728;8.968;2023-03-31T00:08:31;8.90;99.90
6822;DHT22;3449;48.728;8.968;2023-03-31T00:11:04;9.00;99.90
6822;DHT22;3449;48.728;8.968;2023-03-31T00:13:32;8.90;99.90
6822;DHT22;3449;48.728;8.968;2023-03-31T00:16:01;9.00;99.90
6822;DHT22;3449;48.728;8.968;2023-03-31T00:18:28;9.00;99.90
6822;DHT22;3449;48.728;8.968;2023-03-31T00:21:04;9.10;99.90
6822;DHT22;3449;48.728;8.968;2023-03-31T00:23:31;9.20;99.90
6822;DHT22;3449;48.728;8.968;2023-03-31T00:25:59;9.20;99.90
6822;DHT22;3449;48.728;8.968;2023-03-31T00:28:27;9.20;99.90
6822;DHT22;3449;48.728;8.968;2023-03-31T00:30:59;9.30;99.90
6822;DHT22;3449;48.728;8.968;2023-03-31T00:33:26;9.30;99.90
6822;DHT22;3449;48.728;8.968;2023-03-31T00:35:54;9.30;99.90
6822;DHT22;3449;48.728;8.968;2023-03-31T00:38:21;9.30;99.90
6822;DHT22;3449;48.728;8.968;2023-03-31T00:40:48;9.30;99.90
6822;DHT22;3449;48.728;8.968;2023-03-31T00:43:27;9.30;99.90
6822;DHT22;3449;48.728;8.968;2023-03-31T00:45:59;9.30;99.90
6822;DHT22;3449;48.728;8.968;2023-03-31T00:48:26;9.30;99.90
6822;DHT22;3449;48.728;8.968;2023-03-31T00:50:55;9.30;99.90
6822;DHT22;3449;48.728;8.968;2023-03-31T00:53:25;9.30;99.90
6822;DHT22;3449;48.728;8.968;2023-03-31T00:55:58;9.30;99.90
6822;DHT22;3449;48.728;8.968;2023-03-31T00:58:29;9.30;99.90
6822;DHT22;3449;48.728;8.968;2023-03-31T01:00:59;9.20;99.90
6822;DHT22;3449;48.728;8.968;2023-03-31T01:03:27;9.20;99.90
6822;DHT22;3449;48.728;8.968;2023-03-31T01:05:56;9.20;99.90
6822;DHT22;3449;48.728;8.968;2023-03-31T01:08:27;9.20;99.90
6822;DHT22;3449;48.728;8.968;2023-03-31T01:10:57;9.20;99.90
6822;DHT22;3449;48.728;8.968;2023-03-31T01:13:27;9.20;99.90
6822;DHT22;3449;48.728;8.968;2023-03-31T01:15:54;9.20;99.90
6822;DHT22;3449;48.728;8.968;2023-03-31T01:18:21;9.20;99.90
6822;DHT22;3449;48.728;8.968;2023-03-31T01:21:12;9.20;99.90
6822;DHT22;3449;48.728;8.968;2023-03-31T01:27:15;9.20;99.90
6822;DHT22;3449;48.728;8.968;2023-03-31T01:30:21;9.10;99.90
6822;DHT22;3449;48.728;8.968;2023-03-31T01:39:08;9.20;99.90
6822;DHT22;3449;48.728;8.968;2023-03-31T01:41:48;9.30;99.90
6822;DHT22;3449;48.728;8.968;2023-03-31T01:44:21;9.50;99.90
6822;DHT22;3449;48.728;8.968;2023-03-31T01:46:53;9.50;99.90
6822;DHT22;3449;48.728;8.968;2023-03-31T01:49:26;9.60;99.90
6822;DHT22;3449;48.728;8.968;2023-03-31T01:52:00;9.60;99.90
6822;DHT22;3449;48.728;8.968;2023-03-31T01:54:31;9.60;99.90
6822;DHT22;3449;48.728;8.968;2023-03-31T01:57:08;9.60;99.90
6822;DHT22;3449;48.728;8.968;2023-03-31T01:59:40;9.60;99.90
6822;DHT22;3449;48.728;8.968;2023-03-31T02:02:12;9.60;99.90
6822;DHT22;3449;48.728;8.968;2023-03-31T02:04:47;9.50;99.90
6822;DHT22;3449;48.728;8.968;2023-03-31T02:07:19;9.40;99.90
6822;DHT22;3449;48.728;8.968;2023-03-31T02:09:55;9.40;99.90
6822;DHT22;3449;48.728;8.968;2023-03-31T02:12:25;9.40;99.90
6822;DHT22;3449;48.728;8.968;2023-03-31T02:14:54;9.30;99.90
6822;DHT22;3449;48.728;8.968;2023-03-31T02:17:24;9.40;99.90
6822;DHT22;3449;48.728;8.968;2023-03-31T02:19:57;9.30;99.90
6822;DHT22;3449;48.728;8.968;2023-03-31T02:22:28;9.20;99.90
6822;DHT22;3449;48.728;8.968;2023-03-31T02:24:58;9.20;99.90
6822;DHT22;3449;48.728;8.968;2023-03-31T02:27:30;9.10;99.90
6822;DHT22;3449;48.728;8.968;2023-03-31T02:29:58;9.20;99.90
6822;DHT22;3449;48.728;8.968;2023-03-31T02:32:30;9.10;99.90
6822;DHT22;3449;48.728;8.968;2023-03-31T02:34:58;9.10;99.90
6822;DHT22;3449;48.728;8.968;2023-03-31T02:37:27;9.10;99.90
6822;DHT22;3449;48.728;8.968;2023-03-31T02:39:56;9.00;99.90
6822;DHT22;3449;48.728;8.968;2023-03-31T02:42:23;9.10;99.90
6822;DHT22;3449;48.728;8.968;2023-03-31T02:44:52;9.00;99.90
6822;DHT22;3449;48.728;8.968;2023-03-31T02:47:20;9.10;99.90
6822;DHT22;3449;48.728;8.968;2023-03-31T02:49:50;9.10;99.90
6822;DHT22;3449;48.728;8.968;2023-03-31T02:52:43;9.10;99.90
6822;DHT22;3449;48.728;8.968;2023-03-31T02:55:22;9.00;99.90
6822;DHT22;3449;48.728;8.968;2023-03-31T02:58:12;9.00;99.90
6822;DHT22;3449;48.728;8.968;2023-03-31T03:01:04;8.90;99.90
6822;DHT22;3449;48.728;8.968;2023-03-31T03:03:40;8.90;99.90
6822;DHT22;3449;48.728;8.968;2023-03-31T03:06:17;8.90;99.90
6822;DHT22;3449;48.728;8.968;2023-03-31T03:09:00;8.80;99.90
6822;DHT22;3449;48.728;8.968;2023-03-31T03:11:37;8.70;99.90
6822;DHT22;3449;48.728;8.968;2023-03-31T03:14:11;8.70;99.90
6822;DHT22;3449;48.728;8.968;2023-03-31T03:16:45;8.60;99.90
6822;DHT22;3449;48.728;8.968;2023-03-31T03:19:18;8.50;99.90
6822;DHT22;3449;48.728;8.968;2023-03-31T03:21:46;8.40;99.90
6822;DHT22;3449;48.728;8.968;2023-03-31T03:24:13;8.40;99.90
6822;DHT22;3449;48.728;8.968;2023-03-31T03:26:41;8.40;99.90
6822;DHT22;3449;48.728;8.968;2023-03-31T03:29:09;8.30;99.90
6822;DHT22;3449;48.728;8.968;2023-03-31T03:31:37;8.30;99.90
6822;DHT22;3449;48.728;8.968;2023-03-31T03:34:06;8.30;99.90
6822;DHT22;3449;48.728;8.968;2023-03-31T03:36:34;8.20;99.90
6822;DHT22;3449;48.728;8.968;2023-03-31T03:39:02;8.20;99.90
6822;DHT22;3449;48.728;8.968;2023-03-31T03:41:29;8.20;99.90
6822;DHT22;3449;48.728;8.968;2023-03-31T03:43:57;8.30;99.90
6822;DHT22;3449;48.728;8.968;2023-03-31T03:46:24;8.30;99.90
6822;DHT22;3449;48.728;8.968;2023-03-31T03:48:51;8.30;99.90
6822;DHT22;3449;48.728;8.968;2023-03-31T03:51:19;8.30;99.90
6822;DHT22;3449;48.728;8.968;2023-03-31T03:53:46;8.30;99.90
6822;DHT22;3449;48.728;8.968;2023-03-31T03:56:13;8.30;99.90
6822;DHT22;3449;48.728;8.968;2023-03-31T03:58:40;8.30;99.90
6822;DHT22;3449;48.728;8.968;2023-03-31T04:01:07;8.20;99.90
6822;DHT22;3449;48.728;8.968;2023-03-31T04:03:34;8.20;99.90
6822;DHT22;3449;48.728;8.968;2023-03-31T04:06:01;8.20;99.90
6822;DHT22;3449;48.728;8.968;2023-03-31T04:08:29;8.20;99.90
6822;DHT22;3449;48.728;8.968;2023-03-31T04:10:56;8.10;99.90
6822;DHT22;3449;48.728;8.968;2023-03-31T04:13:23;8.10;99.90
6822;DHT22;3449;48.728;8.968;2023-03-31T04:15:50;8.10;99.90
6822;DHT22;3449;48.728;8.968;2023-03-31T04:18:16;8.10;99.90
6822;DHT22;3449;48.728;8.968;2023-03-31T04:20:47;8.10;99.90
6822;DHT22;3449;48.728;8.968;2023-03-31T04:23:19;8.10;99.90
6822;DHT22;3449;48.728;8.968;2023-03-31T04:25:49;8.10;99.90
6822;DHT22;3449;48.728;8.968;2023-03-31T04:28:16;8.10;99.90
6822;DHT22;3449;48.728;8.968;2023-03-31T04:30:43;8.10;99.90
6822;DHT22;3449;48.728;8.968;2023-03-31T04:33:09;8.10;99.90
6822;DHT22;3449;48.728;8.968;2023-03-31T04:35:40;8.20;99.90
6822;DHT22;3449;48.728;8.968;2023-03-31T04:38:18;8.20;99.90
6822;DHT22;3449;48.728;8.968;2023-03-31T04:40:47;8.20;99.90
6822;DHT22;3449;48.728;8.968;2023-03-31T04:43:16;8.20;99.90
6822;DHT22;3449;48.728;8.968;2023-03-31T04:45:43;8.20;99.90
6822;DHT22;3449;48.728;8.968;2023-03-31T04:48:10;8.20;99.90
6822;DHT22;3449;48.728;8.968;2023-03-31T04:50:38;8.20;99.90
6822;DHT22;3449;48.728;8.968;2023-03-31T04:53:05;8.20;99.90
6822;DHT22;3449;48.728;8.968;2023-03-31T04:55:32;8.20;99.90
6822;DHT22;3449;48.728;8.968;2023-03-31T04:57:59;8.20;99.90
6822;DHT22;3449;48.728;8.968;2023-03-31T05:00:28;8.20;99.90
6822;DHT22;3449;48.728;8.968;2023-03-31T05:02:54;8.20;99.90
6822;DHT22;3449;48.728;8.968;2023-03-31T05:05:21;8.20;99.90
6822;DHT22;3449;48.728;8.968;2023-03-31T05:07:48;8.20;99.90
6822;DHT22;3449;48.728;8.968;2023-03-31T05:10:15;8.20;99.90
6822;DHT22;3449;48.728;8.968;2023-03-31T05:12:42;8.20;99.90
6822;DHT22;3449;48.728;8.968;2023-03-31T05:15:10;8.20;99.90
6822;DHT22;3449;48.728;8.968;2023-03-31T05:17:38;8.20;99.90
6822;DHT22;3449;48.728;8.968;2023-03-31T05:20:05;8.30;99.90
6822;DHT22;3449;48.728;8.968;2023-03-31T05:22:34;8.30;99.90
6822;DHT22;3449;48.728;8.968;2023-03-31T05:25:03;8.30;99.90
6822;DHT22;3449;48.728;8.968;2023-03-31T05:27:30;8.30;99.90
6822;DHT22;3449;48.728;8.968;2023-03-31T05:29:57;8.40;99.90
6822;DHT22;3449;48.728;8.968;2023-03-31T05:32:24;8.40;99.90
6822;DHT22;3449;48.728;8.968;2023-03-31T05:34:53;8.30;99.90
6822;DHT22;3449;48.728;8.968;2023-03-31T05:37:22;8.30;99.90
6822;DHT22;3449;48.728;8.968;2023-03-31T05:39:50;8.30;99.90
6822;DHT22;3449;48.728;8.968;2023-03-31T05:42:17;8.30;99.90
6822;DHT22;3449;48.728;8.968;2023-03-31T05:44:44;8.30;99.90
6822;DHT22;3449;48.728;8.968;2023-03-31T05:47:11;8.30;99.90
6822;DHT22;3449;48.728;8.968;2023-03-31T05:49:38;8.30;99.90
6822;DHT22;3449;48.728;8.968;2023-03-31T05:52:07;8.20;99.90
6822;DHT22;3449;48.728;8.968;2023-03-31T05:54:34;8.20;99.90
6822;DHT22;3449;48.728;8.968;2023-03-31T05:57:01;8.20;99.90
6822;DHT22;3449;48.728;8.968;2023-03-31T05:59:28;8.20;99.90
6822;DHT22;3449;48.728;8.968;2023-03-31T06:01:55;8.20;99.90
6822;DHT22;3449;48.728;8.968;2023-03-31T06:04:22;8.20;99.90
6822;DHT22;3449;48.728;8.968;2023-03-31T06:06:49;8.10;99.90
6822;DHT22;3449;48.728;8.968;2023-03-31T06:09:20;8.10;99.90
6822;DHT22;3449;48.728;8.968;2023-03-31T06:11:46;8.10;99.90
6822;DHT22;3449;48.728;8.968;2023-03-31T06:14:14;8.10;99.90
6822;DHT22;3449;48.728;8.968;2023-03-31T06:16:40;8.10;99.90
6822;DHT22;3449;48.728;8.968;2023-03-31T06:19:08;8.10;99.90
6822;DHT22;3449;48.728;8.968;2023-03-31T06:21:35;8.10;99.90
6822;DHT22;3449;48.728;8.968;2023-03-31T06:24:01;8.10;99.90
6822;DHT22;3449;48.728;8.968;2023-03-31T06:26:30;8.10;99.90
6822;DHT22;3449;48.728;8.968;2023-03-31T06:28:57;8.10;99.90
6822;DHT22;3449;48.728;8.968;2023-03-31T06:31:24;8.10;99.90
6822;DHT22;3449;48.728;8.968;2023-03-31T06:33:51;8.10;99.90
6822;DHT22;3449;48.728;8.968;2023-03-31T06:36:20;8.10;99.90
6822;DHT22;3449;48.728;8.968;2023-03-31T06:38:47;8.10;99.90
6822;DHT22;3449;48.728;8.968;2023-03-31T06:41:16;8.10;99.90
6822;DHT22;3449;48.728;8.968;2023-03-31T06:43:46;8.10;99.90
6822;DHT22;3449;48.728;8.968;2023-03-31T06:46:13;8.10;99.90
6822;DHT22;3449;48.728;8.968;2023-03-31T06:48:41;8.10;99.90
6822;DHT22;3449;48.728;8.968;2023-03-31T06:51:09;8.10;99.90
6822;DHT22;3449;48.728;8.968;2023-03-31T06:53:37;8.10;99.90
6822;DHT22;3449;48.728;8.968;2023-03-31T06:56:05;8.10;99.90
6822;DHT22;3449;48.728;8.968;2023-03-31T06:58:32;8.10;99.90
6822;DHT22;3449;48.728;8.968;2023-03-31T07:01:03;8.10;99.90
6822;DHT22;3449;48.728;8.968;2023-03-31T07:03:31;8.20;99.90
6822;DHT22;3449;48.728;8.968;2023-03-31T07:05:58;8.30;99.90
6822;DHT22;3449;48.728;8.968;2023-03-31T07:08:25;8.40;99.90
6822;DHT22;3449;48.728;8.968;2023-03-31T07:10:54;8.40;99.90
6822;DHT22;3449;48.728;8.968;2023-03-31T07:13:22;8.40;99.90
6822;DHT22;3449;48.728;8.968;2023-03-31T07:15:49;8.50;99.90
6822;DHT22;3449;48.728;8.968;2023-03-31T07:18:18;8.50;99.90
6822;DHT22;3449;48.728;8.968;2023-03-31T07:20:47;8.60;99.90
6822;DHT22;3449;48.728;8.968;2023-03-31T07:23:15;8.60;99.90
6822;DHT22;3449;48.728;8.968;2023-03-31T07:25:42;8.60;99.90
6822;DHT22;3449;48.728;8.968;2023-03-31T07:28:10;8.60;99.90
6822;DHT22;3449;48.728;8.968;2023-03-31T07:30:36;8.60;99.90
6822;DHT22;3449;48.728;8.968;2023-03-31T07:33:04;8.70;99.90
6822;DHT22;3449;48.728;8.968;2023-03-31T07:35:36;8.90;99.90
6822;DHT22;3449;48.728;8.968;2023-03-31T07:38:02;9.10;99.90
6822;DHT22;3449;48.728;8.968;2023-03-31T07:40:29;9.30;99.90
6822;DHT22;3449;48.728;8.968;2023-03-31T07:42:56;9.40;99.90
6822;DHT22;3449;48.728;8.968;2023-03-31T07:45:24;9.40;99.90
6822;DHT22;3449;48.728;8.968;2023-03-31T07:47:52;9.60;99.90
6822;DHT22;3449;48.728;8.968;2023-03-31T07:50:20;9.80;99.90
6822;DHT22;3449;48.728;8.968;2023-03-31T07:52:49;10.00;99.90
6822;DHT22;3449;48.728;8.968;2023-03-31T07:55:17;10.20;99.90
6822;DHT22;3449;48.728;8.968;2023-03-31T07:57:44;10.50;99.90
6822;DHT22;3449;48.728;8.968;2023-03-31T08:00:13;10.70;99.90
6822;DHT22;3449;48.728;8.968;2023-03-31T08:02:41;10.70;99.90
6822;DHT22;3449;48.728;8.968;2023-03-31T08:05:09;10.70;99.90
6822;DHT22;3449;48.728;8.968;2023-03-31T08:07:38;10.80;99.90
6822;DHT22;3449;48.728;8.968;2023-03-31T08:10:10;10.90;99.90
6822;DHT22;3449;48.728;8.968;2023-03-31T08:12:37;11.00;99.90
6822;DHT22;3449;48.728;8.968;2023-03-31T08:15:06;10.90;99.90
6822;DHT22;3449;48.728;8.968;2023-03-31T08:17:34;11.10;99.90
6822;DHT22;3449;48.728;8.968;2023-03-31T08:20:01;11.30;99.90
6822;DHT22;3449;48.728;8.968;2023-03-31T08:22:31;11.30;99.90
6822;DHT22;3449;48.728;8.968;2023-03-31T08:24:58;11.50;99.90
6822;DHT22;3449;48.728;8.968;2023-03-31T08:27:26;11.70;99.90
6822;DHT22;3449;48.728;8.968;2023-03-31T08:29:53;11.70;99.90
6822;DHT22;3449;48.728;8.968;2023-03-31T08:32:21;12.00;99.90
6822;DHT22;3449;48.728;8.968;2023-03-31T08:34:49;12.30;99.90
6822;DHT22;3449;48.728;8.968;2023-03-31T08:37:16;12.60;99.90
6822;DHT22;3449;48.728;8.968;2023-03-31T08:39:43;12.80;99.90
6822;DHT22;3449;48.728;8.968;2023-03-31T08:42:14;12.80;99.90
6822;DHT22;3449;48.728;8.968;2023-03-31T08:44:55;13.00;99.90
6822;DHT22;3449;48.728;8.968;2023-03-31T08:47:24;13.10;99.90
6822;DHT22;3449;48.728;8.968;2023-03-31T08:49:55;13.40;99.90
6822;DHT22;3449;48.728;8.968;2023-03-31T08:52:26;13.20;99.90
6822;DHT22;3449;48.728;8.968;2023-03-31T08:54:57;13.20;99.90
6822;DHT22;3449;48.728;8.968;2023-03-31T08:57:27;13.10;99.90
6822;DHT22;3449;48.728;8.968;2023-03-31T08:59:59;13.30;99.90
6822;DHT22;3449;48.728;8.968;2023-03-31T09:02:36;13.30;99.90
6822;DHT22;3449;48.728;8.968;2023-03-31T09:05:21;13.20;99.90
6822;DHT22;3449;48.728;8.968;2023-03-31T09:07:57;13.20;99.90
6822;DHT22;3449;48.728;8.968;2023-03-31T09:10:34;13.40;99.90
6822;DHT22;3449;48.728;8.968;2023-03-31T09:13:14;13.50;99.90
6822;DHT22;3449;48.728;8.968;2023-03-31T09:15:49;13.60;99.90
6822;DHT22;3449;48.728;8.968;2023-03-31T09:18:24;13.40;99.90
6822;DHT22;3449;48.728;8.968;2023-03-31T09:21:05;13.50;99.90
6822;DHT22;3449;48.728;8.968;2023-03-31T09:23:35;13.50;99.90
6822;DHT22;3449;48.728;8.968;2023-03-31T09:26:05;13.60;99.90
6822;DHT22;3449;48.728;8.968;2023-03-31T09:28:38;13.50;99.90
6822;DHT22;3449;48.728;8.968;2023-03-31T09:31:12;13.30;99.90
6822;DHT22;3449;48.728;8.968;2023-03-31T09:33:43;13.10;99.90
6822;DHT22;3449;48.728;8.968;2023-03-31T09:36:15;12.90;99.90
6822;DHT22;3449;48.728;8.968;2023-03-31T09:38:44;12.90;99.90
6822;DHT22;3449;48.728;8.968;2023-03-31T09:41:14;12.90;99.90
6822;DHT22;3449;48.728;8.968;2023-03-31T09:43:42;13.10;99.90
6822;DHT22;3449;48.728;8.968;2023-03-31T09:46:16;13.00;99.90
6822;DHT22;3449;48.728;8.968;2023-03-31T09:48:51;12.90;99.90
6822;DHT22;3449;48.728;8.968;2023-03-31T09:51:23;13.00;99.90
6822;DHT22;3449;48.728;8.968;2023-03-31T09:53:54;13.30;99.90
6822;DHT22;3449;48.728;8.968;2023-03-31T09:56:47;13.80;99.90
6822;DHT22;3449;48.728;8.968;2023-03-31T09:59:16;13.80;99.90
6822;DHT22;3449;48.728;8.968;2023-03-31T10:01:48;13.90;99.90
6822;DHT22;3449;48.728;8.968;2023-03-31T10:04:20;13.90;99.90
6822;DHT22;3449;48.728;8.968;2023-03-31T10:06:48;14.00;99.90
6822;DHT22;3449;48.728;8.968;2023-03-31T10:09:18;14.40;99.90
6822;DHT22;3449;48.728;8.968;2023-03-31T10:11:53;14.40;99.90
6822;DHT22;3449;48.728;8.968;2023-03-31T10:14:24;14.50;99.90
6822;DHT22;3449;48.728;8.968;2023-03-31T10:16:55;14.60;99.90
6822;DHT22;3449;48.728;8.968;2023-03-31T10:19:24;14.90;99.90
6822;DHT22;3449;48.728;8.968;2023-03-31T10:21:55;15.00;99.90
6822;DHT22;3449;48.728;8.968;2023-03-31T10:24:23;15.00;99.90
6822;DHT22;3449;48.728;8.968;2023-03-31T10:26:53;14.90;99.90
6822;DHT22;3449;48.728;8.968;2023-03-31T10:29:24;15.00;99.90
6822;DHT22;3449;48.728;8.968;2023-03-31T10:31:54;15.40;99.90
6822;DHT22;3449;48.728;8.968;2023-03-31T10:34:22;15.50;99.90
6822;DHT22;3449;48.728;8.968;2023-03-31T10:36:50;15.60;99.90
6822;DHT22;3449;48.728;8.968;2023-03-31T10:39:18;15.60;99.90
6822;DHT22;3449;48.728;8.968;2023-03-31T10:41:49;15.30;99.90
6822;DHT22;3449;48.728;8.968;2023-03-31T10:44:33;15.30;99.90
6822;DHT22;3449;48.728;8.968;2023-03-31T10:47:17;15.40;99.90
6822;DHT22;3449;48.728;8.968;2023-03-31T10:49:48;15.60;99.90
6822;DHT22;3449;48.728;8.968;2023-03-31T10:52:18;15.70;99.90
6822;DHT22;3449;48.728;8.968;2023-03-31T10:54:56;15.40;99.90
6822;DHT22;3449;48.728;8.968;2023-03-31T10:57:33;15.10;99.90
6822;DHT22;3449;48.728;8.968;2023-03-31T11:00:17;15.00;99.90
6822;DHT22;3449;48.728;8.968;2023-03-31T11:03:08;15.10;99.90
6822;DHT22;3449;48.728;8.968;2023-03-31T11:05:45;15.00;99.90
6822;DHT22;3449;48.728;8.968;2023-03-31T11:08:29;14.50;99.90
6822;DHT22;3449;48.728;8.968;2023-03-31T11:11:07;14.10;99.90
6822;DHT22;3449;48.728;8.968;2023-03-31T11:13:41;13.40;99.90
6822;DHT22;3449;48.728;8.968;2023-03-31T11:16:17;11.80;99.90
6822;DHT22;3449;48.728;8.968;2023-03-31T11:18:58;10.20;99.90
6822;DHT22;3449;48.728;8.968;2023-03-31T11:21:33;9.40;99.90
6822;DHT22;3449;48.728;8.968;2023-03-31T11:24:05;9.00;99.90
6822;DHT22;3449;48.728;8.968;2023-03-31T11:26:42;8.60;99.90
6822;DHT22;3449;48.728;8.968;2023-03-31T11:29:20;8.40;99.90
6822;DHT22;3449;48.728;8.968;2023-03-31T11:31:53;8.20;99.90
6822;DHT22;3449;48.728;8.968;2023-03-31T11:34:41;8.20;99.90
6822;DHT22;3449;48.728;8.968;2023-03-31T11:40:19;8.10;99.90
6822;DHT22;3449;48.728;8.968;2023-03-31T11:42:50;8.10;99.90
6822;DHT22;3449;48.728;8.968;2023-03-31T11:45:22;8.10;99.90
6822;DHT22;3449;48.728;8.968;2023-03-31T11:47:54;8.20;99.90
6822;DHT22;3449;48.728;8.968;2023-03-31T11:50:26;8.30;99.90
6822;DHT22;3449;48.728;8.968;2023-03-31T11:52:57;8.60;99.90
6822;DHT22;3449;48.728;8.968;2023-03-31T11:55:27;9.00;99.90
6822;DHT22;3449;48.728;8.968;2023-03-31T11:58:01;9.80;99.90
6822;DHT22;3449;48.728;8.968;2023-03-31T12:00:31;10.70;99.90
6822;DHT22;3449;48.728;8.968;2023-03-31T12:03:05;11.10;99.90
6822;DHT22;3449;48.728;8.968;2023-03-31T12:05:37;11.50;99.90
6822;DHT22;3449;48.728;8.968;2023-03-31T12:08:08;11.80;99.90
6822;DHT22;3449;48.728;8.968;2023-03-31T12:10:42;11.70;99.90
6822;DHT22;3449;48.728;8.968;2023-03-31T12:13:30;11.80;99.90
6822;DHT22;3449;48.728;8.968;2023-03-31T12:16:03;11.60;99.90
6822;DHT22;3449;48.728;8.968;2023-03-31T12:18:34;12.00;99.90
6822;DHT22;3449;48.728;8.968;2023-03-31T12:21:05;12.20;99.90
6822;DHT22;3449;48.728;8.968;2023-03-31T12:23:36;12.80;99.90
6822;DHT22;3449;48.728;8.968;2023-03-31T12:26:09;13.20;99.90
6822;DHT22;3449;48.728;8.968;2023-03-31T12:28:39;13.10;99.90
6822;DHT22;3449;48.728;8.968;2023-03-31T12:31:11;13.20;99.90
6822;DHT22;3449;48.728;8.968;2023-03-31T12:33:41;13.50;99.90
6822;DHT22;3449;48.728;8.968;2023-03-31T12:36:20;13.20;99.90
6822;DHT22;3449;48.728;8.968;2023-03-31T12:39:00;13.20;99.90
6822;DHT22;3449;48.728;8.968;2023-03-31T12:41:41;14.00;99.90
6822;DHT22;3449;48.728;8.968;2023-03-31T12:44:21;14.60;99.90
6822;DHT22;3449;48.728;8.968;2023-03-31T12:47:00;14.70;99.90
6822;DHT22;3449;48.728;8.968;2023-03-31T12:49:51;14.90;99.90
6822;DHT22;3449;48.728;8.968;2023-03-31T12:52:30;15.10;99.90
6822;DHT22;3449;48.728;8.968;2023-03-31T12:57:50;15.30;99.90
6822;DHT22;3449;48.728;8.968;2023-03-31T13:00:23;14.80;99.90
6822;DHT22;3449;48.728;8.968;2023-03-31T13:09:40;13.30;99.90
6822;DHT22;3449;48.728;8.968;2023-03-31T13:12:16;12.60;99.90
6822;DHT22;3449;48.728;8.968;2023-03-31T13:14:45;12.10;99.90
6822;DHT22;3449;48.728;8.968;2023-03-31T13:17:23;11.60;99.90
6822;DHT22;3449;48.728;8.968;2023-03-31T13:19:51;10.90;99.90
6822;DHT22;3449;48.728;8.968;2023-03-31T13:22:29;10.30;99.90
6822;DHT22;3449;48.728;8.968;2023-03-31T13:28:08;9.40;99.90
6822;DHT22;3449;48.728;8.968;2023-03-31T13:30:45;9.10;99.90
6822;DHT22;3449;48.728;8.968;2023-03-31T13:33:14;8.90;99.90
6822;DHT22;3449;48.728;8.968;2023-03-31T13:35:47;8.60;99.90
6822;DHT22;3449;48.728;8.968;2023-03-31T13:38:22;8.40;99.90
6822;DHT22;3449;48.728;8.968;2023-03-31T13:40:57;8.10;99.90
6822;DHT22;3449;48.728;8.968;2023-03-31T13:44:03;7.90;99.90
6822;DHT22;3449;48.728;8.968;2023-03-31T13:46:46;7.80;99.90
6822;DHT22;3449;48.728;8.968;2023-03-31T13:49:38;7.70;99.90
6822;DHT22;3449;48.728;8.968;2023-03-31T13:52:10;7.60;99.90
6822;DHT22;3449;48.728;8.968;2023-03-31T14:00:48;7.50;99.90
6822;DHT22;3449;48.728;8.968;2023-03-31T14:03:22;7.90;99.90
6822;DHT22;3449;48.728;8.968;2023-03-31T14:05:56;8.50;99.90
6822;DHT22;3449;48.728;8.968;2023-03-31T14:08:32;9.30;99.90
6822;DHT22;3449;48.728;8.968;2023-03-31T14:11:16;10.00;99.90
6822;DHT22;3449;48.728;8.968;2023-03-31T14:13:43;10.70;99.90
6822;DHT22;3449;48.728;8.968;2023-03-31T14:16:12;11.20;99.90
6822;DHT22;3449;48.728;8.968;2023-03-31T14:18:44;11.50;99.90
6822;DHT22;3449;48.728;8.968;2023-03-31T14:21:20;11.80;99.90
6822;DHT22;3449;48.728;8.968;2023-03-31T14:23:56;12.10;99.90
6822;DHT22;3449;48.728;8.968;2023-03-31T14:26:39;12.20;99.90
6822;DHT22;3449;48.728;8.968;2023-03-31T14:29:13;12.20;99.90
6822;DHT22;3449;48.728;8.968;2023-03-31T14:31:54;12.10;99.90
6822;DHT22;3449;48.728;8.968;2023-03-31T14:34:39;12.60;99.90
6822;DHT22;3449;48.728;8.968;2023-03-31T14:37:11;13.20;99.90
6822;DHT22;3449;48.728;8.968;2023-03-31T14:39:43;13.40;99.90
6822;DHT22;3449;48.728;8.968;2023-03-31T14:42:12;13.40;99.90
6822;DHT22;3449;48.728;8.968;2023-03-31T14:44:40;13.10;99.90
6822;DHT22;3449;48.728;8.968;2023-03-31T14:47:14;12.80;99.90
6822;DHT22;3449;48.728;8.968;2023-03-31T14:49:41;13.30;99.90
6822;DHT22;3449;48.728;8.968;2023-03-31T14:52:14;13.40;99.90
6822;DHT22;3449;48.728;8.968;2023-03-31T14:54:43;13.50;99.90
6822;DHT22;3449;48.728;8.968;2023-03-31T14:57:13;13.20;99.90
6822;DHT22;3449;48.728;8.968;2023-03-31T14:59:42;13.00;99.90
6822;DHT22;3449;48.728;8.968;2023-03-31T15:02:15;13.20;99.90
6822;DHT22;3449;48.728;8.968;2023-03-31T15:04:43;13.90;99.90
6822;DHT22;3449;48.728;8.968;2023-03-31T15:07:14;13.40;99.90
6822;DHT22;3449;48.728;8.968;2023-03-31T15:09:47;13.50;99.90
6822;DHT22;3449;48.728;8.968;2023-03-31T15:12:16;13.00;99.90
6822;DHT22;3449;48.728;8.968;2023-03-31T15:14:46;12.60;99.90
6822;DHT22;3449;48.728;8.968;2023-03-31T15:17:23;12.30;99.90
6822;DHT22;3449;48.728;8.968;2023-03-31T15:19:54;12.00;99.90
6822;DHT22;3449;48.728;8.968;2023-03-31T15:22:23;12.10;99.90
6822;DHT22;3449;48.728;8.968;2023-03-31T15:24:50;12.10;99.90
6822;DHT22;3449;48.728;8.968;2023-03-31T15:27:23;12.00;99.90
6822;DHT22;3449;48.728;8.968;2023-03-31T15:29:54;11.90;99.90
6822;DHT22;3449;48.728;8.968;2023-03-31T15:32:26;11.90;99.90
6822;DHT22;3449;48.728;8.968;2023-03-31T15:34:54;11.70;99.90
6822;DHT22;3449;48.728;8.968;2023-03-31T15:37:24;11.70;99.90
6822;DHT22;3449;48.728;8.968;2023-03-31T15:39:54;11.50;99.90
6822;DHT22;3449;48.728;8.968;2023-03-31T15:42:22;11.50;99.90
6822;DHT22;3449;48.728;8.968;2023-03-31T15:44:54;11.60;99.90
6822;DHT22;3449;48.728;8.968;2023-03-31T15:47:23;11.50;99.90
6822;DHT22;3449;48.728;8.968;2023-03-31T15:49:54;11.70;99.90
6822;DHT22;3449;48.728;8.968;2023-03-31T15:52:25;11.80;99.90
6822;DHT22;3449;48.728;8.968;2023-03-31T15:54:53;11.80;99.90
6822;DHT22;3449;48.728;8.968;2023-03-31T15:57:20;11.80;99.90
6822;DHT22;3449;48.728;8.968;2023-03-31T15:59:47;11.60;99.90
6822;DHT22;3449;48.728;8.968;2023-03-31T16:02:18;11.40;99.90
6822;DHT22;3449;48.728;8.968;2023-03-31T16:04:47;11.20;99.90
6822;DHT22;3449;48.728;8.968;2023-03-31T16:07:19;11.00;99.90
6822;DHT22;3449;48.728;8.968;2023-03-31T16:09:49;10.90;99.90
6822;DHT22;3449;48.728;8.968;2023-03-31T16:12:21;10.70;99.90
6822;DHT22;3449;48.728;8.968;2023-03-31T16:14:51;10.60;99.90
6822;DHT22;3449;48.728;8.968;2023-03-31T16:17:25;10.50;99.90
6822;DHT22;3449;48.728;8.968;2023-03-31T16:19:57;10.30;99.90
6822;DHT22;3449;48.728;8.968;2023-03-31T16:22:32;10.20;99.90
6822;DHT22;3449;48.728;8.968;2023-03-31T16:25:06;10.00;99.90
6822;DHT22;3449;48.728;8.968;2023-03-31T16:27:38;10.00;99.90
6822;DHT22;3449;48.728;8.968;2023-03-31T16:30:10;9.80;99.90
6822;DHT22;3449;48.728;8.968;2023-03-31T16:32:38;9.50;99.90
6822;DHT22;3449;48.728;8.968;2023-03-31T16:35:05;9.20;99.90
6822;DHT22;3449;48.728;8.968;2023-03-31T16:37:34;9.00;99.90
6822;DHT22;3449;48.728;8.968;2023-03-31T16:40:00;8.90;99.90
6822;DHT22;3449;48.728;8.968;2023-03-31T16:42:29;8.80;99.90
6822;DHT22;3449;48.728;8.968;2023-03-31T16:44:56;8.70;99.90
6822;DHT22;3449;48.728;8.968;2023-03-31T16:47:23;8.70;99.90
6822;DHT22;3449;48.728;8.968;2023-03-31T16:49:50;8.60;99.90
6822;DHT22;3449;48.728;8.968;2023-03-31T16:52:17;8.60;99.90
6822;DHT22;3449;48.728;8.968;2023-03-31T16:54:45;8.70;99.90
6822;DHT22;3449;48.728;8.968;2023-03-31T16:57:12;8.70;99.90
6822;DHT22;3449;48.728;8.968;2023-03-31T16:59:39;8.70;99.90
6822;DHT22;3449;48.728;8.968;2023-03-31T17:02:09;8.60;99.90
6822;DHT22;3449;48.728;8.968;2023-03-31T17:04:36;8.60;99.90
6822;DHT22;3449;48.728;8.968;2023-03-31T17:07:03;8.60;99.90
6822;DHT22;3449;48.728;8.968;2023-03-31T17:09:30;8.60;99.90